»·PEaware :: UAL121 KMFR-KSFO

UAL121 :: KMFR-KSFO

FLIGHT INFORMATION

Flight Status: Arrived
Operator:
United Airlines
More flights by this operator :: More flights under this callsign
Pilot: Drew L. (13237)
Aircraft: AIRBUS A320
(A320)
More flights by this aircraft type
Origin: KMFR Rogue Valley Intl-Medford
United States
Destination: KSFO San Francisco Intl
United States
More flights between these airports :: More routes between these airports
Route: +JCKSN1 OED MLBEC BDEGA2
File this flight plan on PilotEdge
Remarks: PBN / A1B1C1D1O1S1 DOF / 180502 REG / N320SB EET / KZOA0010 OPR / UAL PER / C RMK / TCAS SIMBRIEF
Altitude:
(Current/Filed)
33,000ft
Speed:
(Current/Filed)
417kts
Departed: 02-May-18 04:00 PM
Arrived: 02-May-18 04:59 PM
Distance/Time
Traveled:
286nm/0:59
Distance/Time
To Go:
Arrived

Flight Plot

Page will automatically refresh every two minutes.

Flight plan parsing failed; only flown route is shown


Map Options




Map Legend


Flown Route
Filed Route
Departure Airport
Arrival Airport
Navaid (VOR, NDB)
Fix

Horizontal Profiles

Position Reports

Time Latitude Longitude Heading Altitude Ground
Speed
02-May-18 15:36 42.368983 -122.873493 248 1342ft 0kts
02-May-18 15:37 42.368983 -122.873493 248 1342ft 0kts
02-May-18 15:38 42.368983 -122.873493 248 1342ft 0kts
02-May-18 15:39 42.368983 -122.873493 248 1342ft 0kts
02-May-18 15:40 42.368983 -122.873493 248 1342ft 0kts
02-May-18 15:41 42.368983 -122.873493 248 1342ft 0kts
02-May-18 15:42 42.368983 -122.873493 248 1342ft 0kts
02-May-18 15:43 42.368983 -122.873493 248 1342ft 0kts
02-May-18 15:44 42.368983 -122.873493 248 1342ft 0kts
02-May-18 15:45 42.368983 -122.873493 248 1342ft 0kts
02-May-18 15:46 42.368983 -122.873493 248 1342ft 0kts
02-May-18 15:47 42.368983 -122.873493 248 1342ft 0kts
02-May-18 15:48 42.368983 -122.873493 248 1342ft 0kts
02-May-18 15:49 42.368983 -122.873493 248 1342ft 0kts
02-May-18 15:50 42.368983 -122.873493 248 1342ft 0kts
02-May-18 15:51 42.368983 -122.873493 248 1342ft 0kts
02-May-18 15:52 42.368983 -122.873493 248 1342ft 0kts
02-May-18 15:53 42.368983 -122.873493 248 1342ft 0kts
02-May-18 15:54 42.369050 -122.873267 248 1342ft 2kts
02-May-18 15:55 42.369418 -122.872794 180 1342ft 2kts
02-May-18 15:56 42.369589 -122.872845 155 1342ft 0kts
02-May-18 15:57 42.369473 -122.872530 56 1342ft 7kts
02-May-18 15:58 42.377106 -122.876014 340 1342ft 36kts
02-May-18 15:59 42.385658 -122.880348 21 1342ft 0kts
02-May-18 16:00 42.379133 -122.875441 158 1342ft 132kts
02-May-18 16:01 42.335103 -122.880928 247 4047ft 210kts
02-May-18 16:02 42.370921 -122.940359 5 6504ft 271kts
02-May-18 16:03 42.445581 -122.921467 11 10097ft 281kts
02-May-18 16:04 42.528178 -122.907099 346 12653ft 322kts
02-May-18 16:05 42.609782 -122.896627 48 15591ft 327kts
02-May-18 16:06 42.603157 -122.777214 131 18042ft 376kts
02-May-18 16:07 42.500243 -122.733888 168 20118ft 408kts
02-May-18 16:08 42.386539 -122.709838 168 22028ft 424kts
02-May-18 16:09 42.267725 -122.684263 168 23421ft 449kts
02-May-18 16:10 42.140114 -122.656216 168 24039ft 485kts
02-May-18 16:11 42.004989 -122.626074 168 25111ft 500kts
02-May-18 16:12 41.867296 -122.595114 168 26229ft 511kts
02-May-18 16:13 41.726534 -122.563255 168 27225ft 520kts
02-May-18 16:14 41.583570 -122.530670 168 28301ft 525kts
02-May-18 16:15 41.440017 -122.497696 167 29538ft 525kts
02-May-18 16:16 41.296439 -122.464477 167 30741ft 526kts
02-May-18 16:17 41.152671 -122.430808 167 31918ft 527kts
02-May-18 16:18 41.007663 -122.403473 181 32956ft 532kts
02-May-18 16:19 40.865190 -122.438285 191 33054ft 533kts
02-May-18 16:20 40.721054 -122.477271 191 33058ft 534kts
02-May-18 16:21 40.575810 -122.516144 191 33055ft 534kts
02-May-18 16:22 40.430439 -122.554882 191 33055ft 534kts
02-May-18 16:22 40.309443 -122.586994 191 33057ft 534kts
02-May-18 16:23 40.165615 -122.625019 191 33068ft 535kts
02-May-18 16:24 40.020485 -122.663216 191 33071ft 535kts
02-May-18 16:25 39.876298 -122.701004 191 33068ft 534kts
02-May-18 16:26 39.739122 -122.736801 191 33065ft 533kts
02-May-18 16:27 39.593994 -122.774520 191 33083ft 533kts
02-May-18 16:29 39.424833 -122.818283 191 33101ft 534kts
02-May-18 16:30 39.279529 -122.855703 191 33110ft 534kts
02-May-18 16:31 39.133890 -122.893045 191 33111ft 534kts
02-May-18 16:31 39.024185 -122.921070 191 33122ft 534kts
02-May-18 16:32 38.880319 -122.953288 178 33154ft 529kts
02-May-18 16:33 38.770879 -122.928396 163 32329ft 526kts
02-May-18 16:34 38.640658 -122.889679 163 29945ft 511kts
02-May-18 16:35 38.509115 -122.850884 163 27195ft 469kts
02-May-18 16:36 38.386495 -122.814866 163 24090ft 440kts
02-May-18 16:37 38.275235 -122.782285 163 21649ft 401kts
02-May-18 16:38 38.168377 -122.751114 164 19618ft 394kts
02-May-18 16:39 38.069860 -122.722527 164 17706ft 387kts
02-May-18 16:40 37.967077 -122.692760 165 15825ft 373kts
02-May-18 16:41 37.876450 -122.649190 137 14017ft 353kts
02-May-18 16:42 37.804152 -122.572205 138 12410ft 341kts
02-May-18 16:43 37.734803 -122.498797 138 11288ft 310kts
02-May-18 16:44 37.674960 -122.435130 138 11047ft 300kts
02-May-18 16:45 37.611961 -122.369322 145 10970ft 301kts
02-May-18 16:46 37.542105 -122.325174 154 9794ft 268kts
02-May-18 16:47 37.485177 -122.291921 154 8508ft 271kts
02-May-18 16:48 37.444443 -122.218644 113 7452ft 257kts
02-May-18 16:49 37.414139 -122.140768 114 6670ft 247kts
02-May-18 16:50 37.425135 -122.073172 21 5961ft 220kts
02-May-18 16:51 37.477554 -122.100772 323 5007ft 218kts
02-May-18 16:52 37.517406 -122.140878 312 4440ft 182kts
02-May-18 16:53 37.543654 -122.195898 298 3006ft 185kts
02-May-18 16:54 37.566429 -122.250375 297 2030ft 161kts
02-May-18 16:55 37.583790 -122.292025 296 1205ft 124kts
02-May-18 16:56 37.600097 -122.330738 294 532ft 124kts
02-May-18 16:57 37.615889 -122.368340 298 22ft 94kts
02-May-18 16:58 37.618944 -122.378247 268 22ft 16kts
02-May-18 16:59 37.618931 -122.378819 268 22ft 0kts
02-May-18 17:00 37.620618 -122.384274 297 22ft 22kts
02-May-18 17:01 37.618914 -122.385941 172 22ft 0kts

Navigation Log

Ident Type
Flight plan parsing failed, navigation log unavailable